EDLW/DTM METAR and TAF weather

Enter ICAO airport designator
Station Type Date Time Source
EDLW METAR 2021/01/20 22:50 UTC NOAA

EDLW 202250Z AUTO 18016KT 9999 // SCT110/// 10/03 Q0993


Station Type Date Time Source
EDLW Decoded METAR 2021/01/20 22:50 UTC NOAA

Dortmund / Wickede, Germany (EDLW) 51-31N 007-37E
Jan 20, 2021 - 05:50 PM EST / 2021.01.20 2250 UTC
Wind: from the S (180 degrees) at 18 MPH (16 KT):0
Visibility: greater than 7 mile(s):0
Sky conditions: partly cloudy
Temperature: 50 F (10 C)
Dew Point: 37 F (3 C)
Relative Humidity: 61%
Pressure (altimeter): 29.32 in. Hg (0993 hPa)
ob: EDLW 202250Z AUTO 18016KT 9999 // SCT110/// 10/03 Q0993
cycle: 23

Station Type Date Time Source
EDLW TAF 2021/01/20 21:00 UTC NOAA

TAF
AMD EDLW 202150Z 2021/2118 CNL

Example: see airport list